sensor_id;sensor_type;location;lat;lon;timestamp;pressure;altitude;pressure_sealevel;temperature;humidity
21826;BME280;11075;47.944;11.776;2023-04-25T00:02:12;94157.78;;;1.19;43.48
21826;BME280;11075;47.944;11.776;2023-04-25T00:04:39;94153.34;;;0.39;44.79
21826;BME280;11075;47.944;11.776;2023-04-25T00:07:07;94161.75;;;1.03;43.97
21826;BME280;11075;47.944;11.776;2023-04-25T00:09:34;94155.03;;;0.54;45.05
21826;BME280;11075;47.944;11.776;2023-04-25T00:12:00;94158.34;;;0.46;44.91
21826;BME280;11075;47.944;11.776;2023-04-25T00:14:29;94164.75;;;1.15;44.01
21826;BME280;11075;47.944;11.776;2023-04-25T00:16:55;94155.25;;;0.15;46.28
21826;BME280;11075;47.944;11.776;2023-04-25T00:19:22;94163.91;;;1.01;44.59
21826;BME280;11075;47.944;11.776;2023-04-25T00:21:49;94150.53;;;0.54;45.59
21826;BME280;11075;47.944;11.776;2023-04-25T00:24:16;94147.22;;;0.01;47.03
21826;BME280;11075;47.944;11.776;2023-04-25T00:26:43;94144.88;;;-0.82;49.56
21826;BME280;11075;47.944;11.776;2023-04-25T00:29:10;94142.75;;;0.39;46.97
21826;BME280;11075;47.944;11.776;2023-04-25T00:31:37;94150.72;;;1.61;43.84
21826;BME280;11075;47.944;11.776;2023-04-25T00:34:06;94144.16;;;1.86;43.03
21826;BME280;11075;47.944;11.776;2023-04-25T00:36:34;94143.66;;;1.83;42.65
21826;BME280;11075;47.944;11.776;2023-04-25T00:39:01;94151.94;;;2.23;42.14
21826;BME280;11075;47.944;11.776;2023-04-25T00:41:29;94139.72;;;2.08;42.17
21826;BME280;11075;47.944;11.776;2023-04-25T00:43:57;94147.00;;;2.03;42.20
21826;BME280;11075;47.944;11.776;2023-04-25T00:46:25;94143.06;;;1.73;43.12
21826;BME280;11075;47.944;11.776;2023-04-25T00:48:52;94143.25;;;2.18;41.90
21826;BME280;11075;47.944;11.776;2023-04-25T00:51:21;94136.06;;;2.18;42.20
21826;BME280;11075;47.944;11.776;2023-04-25T00:53:49;94134.91;;;2.10;42.23
21826;BME280;11075;47.944;11.776;2023-04-25T00:56:17;94135.66;;;2.38;41.65
21826;BME280;11075;47.944;11.776;2023-04-25T00:58:44;94127.81;;;1.65;43.22
21826;BME280;11075;47.944;11.776;2023-04-25T01:01:12;94133.53;;;1.26;44.18
21826;BME280;11075;47.944;11.776;2023-04-25T01:03:40;94123.78;;;0.89;44.84
21826;BME280;11075;47.944;11.776;2023-04-25T01:06:09;94135.41;;;1.85;42.78
21826;BME280;11075;47.944;11.776;2023-04-25T01:08:38;94127.94;;;-0.04;46.49
21826;BME280;11075;47.944;11.776;2023-04-25T01:11:06;94128.69;;;-0.23;47.13
21826;BME280;11075;47.944;11.776;2023-04-25T01:13:33;94141.69;;;0.40;46.70
21826;BME280;11075;47.944;11.776;2023-04-25T01:16:02;94135.38;;;1.58;44.00
21826;BME280;11075;47.944;11.776;2023-04-25T01:18:29;94131.69;;;1.07;44.47
21826;BME280;11075;47.944;11.776;2023-04-25T01:21:02;94127.59;;;1.15;44.62
21826;BME280;11075;47.944;11.776;2023-04-25T01:23:31;94139.28;;;0.20;47.20
21826;BME280;11075;47.944;11.776;2023-04-25T01:26:00;94135.38;;;0.93;45.86
21826;BME280;11075;47.944;11.776;2023-04-25T01:28:28;94128.53;;;0.73;46.20
21826;BME280;11075;47.944;11.776;2023-04-25T01:30:56;94129.88;;;0.51;46.33
21826;BME280;11075;47.944;11.776;2023-04-25T01:33:24;94122.50;;;0.06;47.45
21826;BME280;11075;47.944;11.776;2023-04-25T01:35:51;94122.00;;;-0.68;49.41
21826;BME280;11075;47.944;11.776;2023-04-25T01:38:19;94117.13;;;-0.08;48.17
21826;BME280;11075;47.944;11.776;2023-04-25T01:40:46;94114.63;;;0.01;48.46
21826;BME280;11075;47.944;11.776;2023-04-25T01:43:18;94124.31;;;0.53;46.85
21826;BME280;11075;47.944;11.776;2023-04-25T01:45:45;94110.88;;;-0.17;48.33
21826;BME280;11075;47.944;11.776;2023-04-25T01:48:13;94122.81;;;-0.20;48.84
21826;BME280;11075;47.944;11.776;2023-04-25T01:50:42;94112.00;;;0.19;47.78
21826;BME280;11075;47.944;11.776;2023-04-25T01:53:12;94118.00;;;0.49;46.68
21826;BME280;11075;47.944;11.776;2023-04-25T01:55:42;94125.97;;;0.06;45.97
21826;BME280;11075;47.944;11.776;2023-04-25T01:58:13;94099.34;;;0.16;46.12
21826;BME280;11075;47.944;11.776;2023-04-25T02:01:18;94114.16;;;0.17;46.31
21826;BME280;11075;47.944;11.776;2023-04-25T02:03:58;94122.63;;;-0.76;48.41
21826;BME280;11075;47.944;11.776;2023-04-25T02:06:31;94113.03;;;-0.19;47.50
21826;BME280;11075;47.944;11.776;2023-04-25T02:08:58;94115.03;;;-0.11;47.11
21826;BME280;11075;47.944;11.776;2023-04-25T02:11:25;94111.59;;;-0.12;46.94
21826;BME280;11075;47.944;11.776;2023-04-25T02:14:12;94111.66;;;0.26;45.61
21826;BME280;11075;47.944;11.776;2023-04-25T02:16:45;94117.59;;;-0.25;46.63
21826;BME280;11075;47.944;11.776;2023-04-25T02:19:13;94123.66;;;-0.00;45.89
21826;BME280;11075;47.944;11.776;2023-04-25T02:21:40;94118.53;;;0.27;45.42
21826;BME280;11075;47.944;11.776;2023-04-25T02:24:07;94121.63;;;-0.32;45.76
21826;BME280;11075;47.944;11.776;2023-04-25T02:26:34;94113.97;;;-0.10;46.29
21826;BME280;11075;47.944;11.776;2023-04-25T02:29:01;94123.13;;;0.40;45.03
21826;BME280;11075;47.944;11.776;2023-04-25T02:31:28;94115.38;;;0.25;45.03
21826;BME280;11075;47.944;11.776;2023-04-25T02:33:57;94111.94;;;-0.66;46.82
21826;BME280;11075;47.944;11.776;2023-04-25T02:36:24;94112.69;;;-0.36;47.15
21826;BME280;11075;47.944;11.776;2023-04-25T02:38:50;94108.31;;;0.77;44.28
21826;BME280;11075;47.944;11.776;2023-04-25T02:41:20;94103.38;;;-0.58;46.91
21826;BME280;11075;47.944;11.776;2023-04-25T02:43:47;94112.34;;;0.56;45.08
21826;BME280;11075;47.944;11.776;2023-04-25T02:46:17;94109.66;;;0.37;44.87
21826;BME280;11075;47.944;11.776;2023-04-25T02:48:58;94109.75;;;0.50;45.05
21826;BME280;11075;47.944;11.776;2023-04-25T02:51:25;94101.09;;;0.45;45.88
21826;BME280;11075;47.944;11.776;2023-04-25T02:53:53;94097.97;;;0.19;46.08
21826;BME280;11075;47.944;11.776;2023-04-25T02:56:19;94100.06;;;1.11;44.37
21826;BME280;11075;47.944;11.776;2023-04-25T02:58:47;94096.00;;;0.67;45.05
21826;BME280;11075;47.944;11.776;2023-04-25T03:01:14;94103.09;;;-0.85;48.34
21826;BME280;11075;47.944;11.776;2023-04-25T03:03:41;94099.63;;;0.15;46.27
21826;BME280;11075;47.944;11.776;2023-04-25T03:06:08;94097.19;;;0.18;46.68
21826;BME280;11075;47.944;11.776;2023-04-25T03:08:36;94101.00;;;0.31;46.24
21826;BME280;11075;47.944;11.776;2023-04-25T03:11:03;94102.13;;;0.81;44.61
21826;BME280;11075;47.944;11.776;2023-04-25T03:13:30;94099.41;;;0.30;45.88
21826;BME280;11075;47.944;11.776;2023-04-25T03:15:58;94093.16;;;0.96;44.63
21826;BME280;11075;47.944;11.776;2023-04-25T03:18:25;94093.19;;;1.10;43.97
21826;BME280;11075;47.944;11.776;2023-04-25T03:20:54;94085.00;;;0.74;44.64
21826;BME280;11075;47.944;11.776;2023-04-25T03:23:20;94085.69;;;0.47;45.26
21826;BME280;11075;47.944;11.776;2023-04-25T03:25:47;94086.78;;;1.11;43.90
21826;BME280;11075;47.944;11.776;2023-04-25T03:28:15;94087.75;;;1.47;42.91
21826;BME280;11075;47.944;11.776;2023-04-25T03:30:41;94078.06;;;0.40;45.69
21826;BME280;11075;47.944;11.776;2023-04-25T03:33:09;94083.47;;;0.54;45.01
21826;BME280;11075;47.944;11.776;2023-04-25T03:35:36;94075.97;;;1.07;43.51
21826;BME280;11075;47.944;11.776;2023-04-25T03:38:02;94085.00;;;-0.01;47.00
21826;BME280;11075;47.944;11.776;2023-04-25T03:40:34;94124.69;;;-0.73;47.88
21826;BME280;11075;47.944;11.776;2023-04-25T03:43:27;94106.56;;;-0.90;47.26
21826;BME280;11075;47.944;11.776;2023-04-25T03:46:01;94116.44;;;-1.34;48.43
21826;BME280;11075;47.944;11.776;2023-04-25T03:48:28;94130.59;;;-0.81;47.39
21826;BME280;11075;47.944;11.776;2023-04-25T03:50:55;94128.41;;;-0.74;47.03
21826;BME280;11075;47.944;11.776;2023-04-25T03:53:21;94127.84;;;-0.42;47.37
21826;BME280;11075;47.944;11.776;2023-04-25T03:56:17;94138.25;;;-0.51;47.96
21826;BME280;11075;47.944;11.776;2023-04-25T03:58:46;94145.75;;;-1.70;51.65
21826;BME280;11075;47.944;11.776;2023-04-25T04:01:15;94131.72;;;-1.65;51.41
21826;BME280;11075;47.944;11.776;2023-04-25T04:03:41;94129.44;;;-1.04;51.42
21826;BME280;11075;47.944;11.776;2023-04-25T04:06:09;94122.06;;;-1.07;51.77
21826;BME280;11075;47.944;11.776;2023-04-25T04:08:43;94105.13;;;-1.06;50.67
21826;BME280;11075;47.944;11.776;2023-04-25T04:11:10;94101.19;;;-0.51;49.97
21826;BME280;11075;47.944;11.776;2023-04-25T04:13:37;94091.69;;;-0.52;50.16
21826;BME280;11075;47.944;11.776;2023-04-25T04:16:06;94080.25;;;-1.05;52.27
21826;BME280;11075;47.944;11.776;2023-04-25T04:18:33;94073.72;;;-0.55;50.60
21826;BME280;11075;47.944;11.776;2023-04-25T04:21:00;94073.53;;;-0.63;50.10
21826;BME280;11075;47.944;11.776;2023-04-25T04:23:30;94077.63;;;-0.76;50.85
21826;BME280;11075;47.944;11.776;2023-04-25T04:25:58;94070.31;;;-0.13;48.22
21826;BME280;11075;47.944;11.776;2023-04-25T04:28:50;94078.00;;;1.43;45.26
21826;BME280;11075;47.944;11.776;2023-04-25T04:31:50;94069.28;;;0.45;46.70
21826;BME280;11075;47.944;11.776;2023-04-25T04:34:19;94071.13;;;1.56;44.62
21826;BME280;11075;47.944;11.776;2023-04-25T04:36:47;94062.41;;;1.69;44.50
21826;BME280;11075;47.944;11.776;2023-04-25T04:39:14;94073.81;;;1.09;45.84
21826;BME280;11075;47.944;11.776;2023-04-25T04:41:52;94087.28;;;1.59;45.16
21826;BME280;11075;47.944;11.776;2023-04-25T04:44:37;94085.47;;;0.43;47.57
21826;BME280;11075;47.944;11.776;2023-04-25T04:47:24;94094.56;;;1.67;45.35
21826;BME280;11075;47.944;11.776;2023-04-25T04:50:11;94109.72;;;0.13;48.74
21826;BME280;11075;47.944;11.776;2023-04-25T04:53:00;94136.94;;;0.37;47.99
21826;BME280;11075;47.944;11.776;2023-04-25T04:55:44;94140.09;;;-2.02;53.77
21826;BME280;11075;47.944;11.776;2023-04-25T04:58:31;94152.84;;;-1.65;53.06
21826;BME280;11075;47.944;11.776;2023-04-25T05:01:19;94116.97;;;-1.72;52.78
21826;BME280;11075;47.944;11.776;2023-04-25T05:04:05;94111.59;;;-0.59;49.04
21826;BME280;11075;47.944;11.776;2023-04-25T05:06:53;94101.03;;;-0.35;49.35
21826;BME280;11075;47.944;11.776;2023-04-25T05:09:38;94098.69;;;0.25;48.69
21826;BME280;11075;47.944;11.776;2023-04-25T05:12:05;94102.94;;;0.63;47.52
21826;BME280;11075;47.944;11.776;2023-04-25T05:14:45;94091.44;;;-0.79;50.21
21826;BME280;11075;47.944;11.776;2023-04-25T05:17:31;94089.41;;;-0.63;50.62
21826;BME280;11075;47.944;11.776;2023-04-25T05:19:59;94089.03;;;0.15;49.20
21826;BME280;11075;47.944;11.776;2023-04-25T05:22:50;94086.06;;;0.92;47.17
21826;BME280;11075;47.944;11.776;2023-04-25T05:25:40;94099.97;;;0.83;47.83
21826;BME280;11075;47.944;11.776;2023-04-25T05:28:33;94103.78;;;1.10;47.13
21826;BME280;11075;47.944;11.776;2023-04-25T05:31:23;94088.84;;;0.49;48.19
21826;BME280;11075;47.944;11.776;2023-04-25T05:34:01;94081.81;;;1.23;47.08
21826;BME280;11075;47.944;11.776;2023-04-25T05:36:39;94099.00;;;1.99;44.80
21826;BME280;11075;47.944;11.776;2023-04-25T05:39:07;94089.41;;;1.43;45.98
21826;BME280;11075;47.944;11.776;2023-04-25T05:42:01;94099.69;;;1.17;46.83
21826;BME280;11075;47.944;11.776;2023-04-25T05:45:01;94109.88;;;0.40;49.31
21826;BME280;11075;47.944;11.776;2023-04-25T05:47:51;94106.59;;;-0.37;50.79
21826;BME280;11075;47.944;11.776;2023-04-25T05:50:27;94106.19;;;-0.25;49.77
21826;BME280;11075;47.944;11.776;2023-04-25T05:52:59;94103.34;;;0.33;48.74
21826;BME280;11075;47.944;11.776;2023-04-25T05:55:29;94102.81;;;-0.31;50.53
21826;BME280;11075;47.944;11.776;2023-04-25T05:57:58;94107.44;;;0.81;48.24
21826;BME280;11075;47.944;11.776;2023-04-25T06:00:26;94097.56;;;0.31;48.39
21826;BME280;11075;47.944;11.776;2023-04-25T06:02:53;94090.25;;;0.41;48.07
21826;BME280;11075;47.944;11.776;2023-04-25T06:05:20;94088.91;;;2.24;45.18
21826;BME280;11075;47.944;11.776;2023-04-25T06:07:48;94085.00;;;2.07;44.87
21826;BME280;11075;47.944;11.776;2023-04-25T06:10:15;94084.94;;;0.41;48.04
21826;BME280;11075;47.944;11.776;2023-04-25T06:12:42;94079.81;;;2.97;43.89
21826;BME280;11075;47.944;11.776;2023-04-25T06:15:09;94076.38;;;1.88;44.31
21826;BME280;11075;47.944;11.776;2023-04-25T06:17:53;94080.06;;;2.87;43.41
21826;BME280;11075;47.944;11.776;2023-04-25T06:20:21;94077.41;;;3.40;43.62
21826;BME280;11075;47.944;11.776;2023-04-25T06:22:51;94079.84;;;3.98;41.79
21826;BME280;11075;47.944;11.776;2023-04-25T06:25:20;94068.91;;;2.62;44.48
21826;BME280;11075;47.944;11.776;2023-04-25T06:27:48;94076.81;;;2.18;46.14
21826;BME280;11075;47.944;11.776;2023-04-25T06:30:16;94082.00;;;2.95;44.09
21826;BME280;11075;47.944;11.776;2023-04-25T06:32:45;94075.38;;;1.98;47.01
21826;BME280;11075;47.944;11.776;2023-04-25T06:35:12;94072.88;;;3.40;44.51
21826;BME280;11075;47.944;11.776;2023-04-25T06:37:40;94057.69;;;3.41;44.56
21826;BME280;11075;47.944;11.776;2023-04-25T06:40:07;94075.06;;;2.85;44.05
21826;BME280;11075;47.944;11.776;2023-04-25T06:42:34;94063.56;;;2.40;45.38
21826;BME280;11075;47.944;11.776;2023-04-25T06:45:21;94074.22;;;4.00;42.56
21826;BME280;11075;47.944;11.776;2023-04-25T06:47:48;94063.47;;;3.43;44.62
21826;BME280;11075;47.944;11.776;2023-04-25T06:50:15;94067.13;;;2.71;47.12
21826;BME280;11075;47.944;11.776;2023-04-25T06:52:42;94067.56;;;2.87;45.02
21826;BME280;11075;47.944;11.776;2023-04-25T06:55:09;94068.03;;;4.74;43.04
21826;BME280;11075;47.944;11.776;2023-04-25T06:57:52;94049.66;;;3.32;44.63
21826;BME280;11075;47.944;11.776;2023-04-25T07:00:57;94072.34;;;5.85;39.61
21826;BME280;11075;47.944;11.776;2023-04-25T07:03:25;94058.41;;;2.21;45.40
21826;BME280;11075;47.944;11.776;2023-04-25T07:05:57;94075.22;;;4.56;43.64
21826;BME280;11075;47.944;11.776;2023-04-25T07:08:24;94055.59;;;5.12;43.25
21826;BME280;11075;47.944;11.776;2023-04-25T07:10:51;94048.38;;;4.18;42.68
21826;BME280;11075;47.944;11.776;2023-04-25T07:13:18;94063.31;;;2.86;44.70
21826;BME280;11075;47.944;11.776;2023-04-25T07:15:46;94069.25;;;2.11;46.52
21826;BME280;11075;47.944;11.776;2023-04-25T07:18:16;94064.75;;;3.46;44.76
21826;BME280;11075;47.944;11.776;2023-04-25T07:20:43;94067.56;;;2.51;45.54
21826;BME280;11075;47.944;11.776;2023-04-25T07:23:11;94067.69;;;3.35;44.17
21826;BME280;11075;47.944;11.776;2023-04-25T07:25:39;94069.91;;;3.73;42.94
21826;BME280;11075;47.944;11.776;2023-04-25T07:28:06;94077.81;;;3.95;43.15
21826;BME280;11075;47.944;11.776;2023-04-25T07:30:35;94080.50;;;4.13;41.49
21826;BME280;11075;47.944;11.776;2023-04-25T07:33:03;94086.44;;;6.95;38.40
21826;BME280;11075;47.944;11.776;2023-04-25T07:35:30;94044.84;;;6.77;38.55
21826;BME280;11075;47.944;11.776;2023-04-25T07:37:58;94070.34;;;7.16;37.57
21826;BME280;11075;47.944;11.776;2023-04-25T07:40:26;94052.50;;;4.76;39.67
21826;BME280;11075;47.944;11.776;2023-04-25T07:42:58;94066.06;;;7.36;37.25
21826;BME280;11075;47.944;11.776;2023-04-25T07:45:37;94056.47;;;6.60;37.88
21826;BME280;11075;47.944;11.776;2023-04-25T07:48:04;94053.31;;;7.33;37.90
21826;BME280;11075;47.944;11.776;2023-04-25T07:50:35;94065.09;;;6.66;37.97
21826;BME280;11075;47.944;11.776;2023-04-25T07:53:02;94038.22;;;5.53;39.28
21826;BME280;11075;47.944;11.776;2023-04-25T07:55:35;94038.34;;;4.84;39.38
21826;BME280;11075;47.944;11.776;2023-04-25T07:58:11;94054.44;;;6.07;38.66
21826;BME280;11075;47.944;11.776;2023-04-25T08:00:40;94066.13;;;6.02;38.05
21826;BME280;11075;47.944;11.776;2023-04-25T08:03:26;94065.09;;;6.15;37.89
21826;BME280;11075;47.944;11.776;2023-04-25T08:05:54;94095.31;;;6.45;36.24
21826;BME280;11075;47.944;11.776;2023-04-25T08:08:23;94104.00;;;6.63;34.85
21826;BME280;11075;47.944;11.776;2023-04-25T08:10:50;94061.75;;;5.97;36.93
21826;BME280;11075;47.944;11.776;2023-04-25T08:13:17;94110.50;;;7.94;33.50
21826;BME280;11075;47.944;11.776;2023-04-25T08:15:44;94066.75;;;7.45;35.20
21826;BME280;11075;47.944;11.776;2023-04-25T08:18:12;94038.34;;;4.84;37.48
21826;BME280;11075;47.944;11.776;2023-04-25T08:20:43;94064.78;;;5.87;37.28
21826;BME280;11075;47.944;11.776;2023-04-25T08:23:12;94047.22;;;3.93;38.28
21826;BME280;11075;47.944;11.776;2023-04-25T08:26:00;94055.28;;;5.05;36.86
21826;BME280;11075;47.944;11.776;2023-04-25T08:28:28;94077.78;;;5.51;35.79
21826;BME280;11075;47.944;11.776;2023-04-25T08:30:57;94064.41;;;4.52;36.09
21826;BME280;11075;47.944;11.776;2023-04-25T08:33:27;94084.47;;;6.83;34.58
21826;BME280;11075;47.944;11.776;2023-04-25T08:35:59;94083.88;;;6.07;35.40
21826;BME280;11075;47.944;11.776;2023-04-25T08:38:28;94081.34;;;5.08;35.24
21826;BME280;11075;47.944;11.776;2023-04-25T08:40:56;94060.34;;;3.81;37.20
21826;BME280;11075;47.944;11.776;2023-04-25T08:43:25;94072.38;;;4.35;36.26
21826;BME280;11075;47.944;11.776;2023-04-25T08:45:53;94058.31;;;6.47;36.08
21826;BME280;11075;47.944;11.776;2023-04-25T08:48:33;94108.25;;;6.64;32.69
21826;BME280;11075;47.944;11.776;2023-04-25T08:51:07;94134.97;;;8.78;30.75
21826;BME280;11075;47.944;11.776;2023-04-25T08:53:38;94094.00;;;6.93;32.75
21826;BME280;11075;47.944;11.776;2023-04-25T08:56:11;94077.53;;;5.26;33.75
21826;BME280;11075;47.944;11.776;2023-04-25T08:58:40;94067.09;;;4.69;35.33
21826;BME280;11075;47.944;11.776;2023-04-25T09:01:07;94053.09;;;4.38;36.97
21826;BME280;11075;47.944;11.776;2023-04-25T09:03:44;94072.44;;;4.78;35.31
21826;BME280;11075;47.944;11.776;2023-04-25T09:06:11;94066.91;;;4.40;37.37
21826;BME280;11075;47.944;11.776;2023-04-25T09:08:38;94045.34;;;1.97;42.19
21826;BME280;11075;47.944;11.776;2023-04-25T09:11:07;94090.16;;;0.84;44.84
21826;BME280;11075;47.944;11.776;2023-04-25T09:13:35;94115.63;;;0.66;43.78
21826;BME280;11075;47.944;11.776;2023-04-25T09:16:10;94116.06;;;0.73;45.13
21826;BME280;11075;47.944;11.776;2023-04-25T09:18:47;94109.72;;;1.21;45.94
21826;BME280;11075;47.944;11.776;2023-04-25T09:21:15;94097.34;;;2.39;43.74
21826;BME280;11075;47.944;11.776;2023-04-25T09:23:46;94144.63;;;5.33;38.15
21826;BME280;11075;47.944;11.776;2023-04-25T09:26:15;94130.78;;;5.57;36.13
21826;BME280;11075;47.944;11.776;2023-04-25T09:28:44;94179.75;;;8.74;31.66
21826;BME280;11075;47.944;11.776;2023-04-25T09:31:22;94183.28;;;10.77;29.88
21826;BME280;11075;47.944;11.776;2023-04-25T09:34:00;94206.19;;;11.37;28.36
21826;BME280;11075;47.944;11.776;2023-04-25T09:36:36;94185.91;;;12.47;28.33
21826;BME280;11075;47.944;11.776;2023-04-25T09:39:21;94117.31;;;9.45;31.87
21826;BME280;11075;47.944;11.776;2023-04-25T09:41:57;94079.13;;;6.62;35.02
21826;BME280;11075;47.944;11.776;2023-04-25T09:44:25;94074.28;;;7.76;35.53
21826;BME280;11075;47.944;11.776;2023-04-25T09:46:53;94170.69;;;11.93;29.69
21826;BME280;11075;47.944;11.776;2023-04-25T09:49:26;94077.72;;;7.64;35.11
21826;BME280;11075;47.944;11.776;2023-04-25T09:52:01;94089.53;;;7.39;34.89
21826;BME280;11075;47.944;11.776;2023-04-25T09:54:46;94081.66;;;6.09;35.95
21826;BME280;11075;47.944;11.776;2023-04-25T09:57:20;94110.91;;;7.72;34.49
21826;BME280;11075;47.944;11.776;2023-04-25T10:02:18;94088.91;;;7.00;36.59
21826;BME280;11075;47.944;11.776;2023-04-25T10:04:53;94101.09;;;7.31;35.88
21826;BME280;11075;47.944;11.776;2023-04-25T10:07:38;94112.84;;;7.38;35.14
21826;BME280;11075;47.944;11.776;2023-04-25T10:10:12;94101.34;;;6.84;36.05
21826;BME280;11075;47.944;11.776;2023-04-25T10:12:39;94116.66;;;7.16;34.62
21826;BME280;11075;47.944;11.776;2023-04-25T10:15:09;94073.72;;;5.45;36.52
21826;BME280;11075;47.944;11.776;2023-04-25T10:17:38;94098.78;;;6.87;35.23
21826;BME280;11075;47.944;11.776;2023-04-25T10:20:06;94127.59;;;6.70;32.50
21826;BME280;11075;47.944;11.776;2023-04-25T10:22:47;94083.69;;;6.83;35.35
21826;BME280;11075;47.944;11.776;2023-04-25T10:25:15;94105.56;;;7.06;33.36
21826;BME280;11075;47.944;11.776;2023-04-25T10:27:42;94115.69;;;8.11;32.39
21826;BME280;11075;47.944;11.776;2023-04-25T10:30:13;94102.94;;;8.08;32.45
21826;BME280;11075;47.944;11.776;2023-04-25T10:32:42;94095.00;;;7.42;32.90
21826;BME280;11075;47.944;11.776;2023-04-25T10:35:14;94157.78;;;10.24;29.17
21826;BME280;11075;47.944;11.776;2023-04-25T10:38:04;94112.31;;;8.51;32.05
21826;BME280;11075;47.944;11.776;2023-04-25T10:40:34;94144.00;;;9.38;29.58
21826;BME280;11075;47.944;11.776;2023-04-25T10:51:29;94104.06;;;8.96;31.17
21826;BME280;11075;47.944;11.776;2023-04-25T10:54:19;94080.03;;;7.41;32.39
21826;BME280;11075;47.944;11.776;2023-04-25T10:56:48;94105.53;;;7.59;31.05
21826;BME280;11075;47.944;11.776;2023-04-25T10:59:17;94112.31;;;6.70;31.31
21826;BME280;11075;47.944;11.776;2023-04-25T11:01:46;94075.50;;;6.38;34.01
21826;BME280;11075;47.944;11.776;2023-04-25T11:04:24;94059.41;;;4.68;35.91
21826;BME280;11075;47.944;11.776;2023-04-25T11:09:36;94039.03;;;3.10;39.69
21826;BME280;11075;47.944;11.776;2023-04-25T11:12:05;94090.81;;;4.80;37.34
21826;BME280;11075;47.944;11.776;2023-04-25T11:14:34;94015.66;;;3.29;41.87
21826;BME280;11075;47.944;11.776;2023-04-25T11:17:01;94050.97;;;3.83;42.07
21826;BME280;11075;47.944;11.776;2023-04-25T11:19:29;94117.28;;;3.54;42.47
21826;BME280;11075;47.944;11.776;2023-04-25T11:21:58;94135.00;;;3.89;41.60
21826;BME280;11075;47.944;11.776;2023-04-25T11:24:35;94141.91;;;4.47;40.25
21826;BME280;11075;47.944;11.776;2023-04-25T11:27:04;94166.00;;;4.99;41.09
21826;BME280;11075;47.944;11.776;2023-04-25T11:29:34;94163.97;;;4.22;43.44
21826;BME280;11075;47.944;11.776;2023-04-25T11:32:01;94160.06;;;3.57;43.07
21826;BME280;11075;47.944;11.776;2023-04-25T11:34:31;94176.72;;;3.18;43.38
21826;BME280;11075;47.944;11.776;2023-04-25T11:37:00;94176.84;;;1.54;47.84
21826;BME280;11075;47.944;11.776;2023-04-25T11:39:29;94182.03;;;2.46;46.28
21826;BME280;11075;47.944;11.776;2023-04-25T11:41:56;94185.44;;;3.55;43.91
21826;BME280;11075;47.944;11.776;2023-04-25T11:44:23;94189.91;;;3.01;44.48
21826;BME280;11075;47.944;11.776;2023-04-25T11:46:50;94190.53;;;2.21;45.61
21826;BME280;11075;47.944;11.776;2023-04-25T11:49:17;94190.66;;;2.79;46.38
21826;BME280;11075;47.944;11.776;2023-04-25T11:51:47;94210.19;;;1.27;50.09
21826;BME280;11075;47.944;11.776;2023-04-25T11:54:15;94216.91;;;1.38;48.15
21826;BME280;11075;47.944;11.776;2023-04-25T11:56:43;94218.28;;;2.01;47.33
21826;BME280;11075;47.944;11.776;2023-04-25T11:59:11;94227.50;;;2.86;45.33
21826;BME280;11075;47.944;11.776;2023-04-25T12:01:41;94218.28;;;2.42;47.87
21826;BME280;11075;47.944;11.776;2023-04-25T12:06:45;94224.81;;;1.43;51.01
21826;BME280;11075;47.944;11.776;2023-04-25T12:09:18;94224.38;;;1.36;49.86
21826;BME280;11075;47.944;11.776;2023-04-25T12:11:55;94223.00;;;2.45;48.05
21826;BME280;11075;47.944;11.776;2023-04-25T12:14:27;94222.69;;;2.74;47.83
21826;BME280;11075;47.944;11.776;2023-04-25T12:17:01;94221.91;;;2.46;47.70
21826;BME280;11075;47.944;11.776;2023-04-25T12:19:37;94225.56;;;2.36;47.77
21826;BME280;11075;47.944;11.776;2023-04-25T12:22:21;94218.28;;;2.14;49.55
21826;BME280;11075;47.944;11.776;2023-04-25T12:24:49;94214.59;;;4.13;44.37
21826;BME280;11075;47.944;11.776;2023-04-25T12:27:16;94203.13;;;3.73;44.33
21826;BME280;11075;47.944;11.776;2023-04-25T12:29:53;94214.22;;;4.85;42.22
21826;BME280;11075;47.944;11.776;2023-04-25T12:32:21;94209.66;;;5.46;41.43
21826;BME280;11075;47.944;11.776;2023-04-25T12:34:48;94212.97;;;5.17;42.75
21826;BME280;11075;47.944;11.776;2023-04-25T12:37:16;94200.41;;;5.44;41.45
21826;BME280;11075;47.944;11.776;2023-04-25T12:39:43;94199.69;;;5.98;40.99
21826;BME280;11075;47.944;11.776;2023-04-25T12:42:10;94197.25;;;5.67;41.33
21826;BME280;11075;47.944;11.776;2023-04-25T12:44:39;94190.06;;;6.06;41.07
21826;BME280;11075;47.944;11.776;2023-04-25T12:47:08;94201.69;;;8.88;37.01
21826;BME280;11075;47.944;11.776;2023-04-25T12:49:35;94225.97;;;8.43;35.61
21826;BME280;11075;47.944;11.776;2023-04-25T12:52:02;94153.91;;;6.88;41.46
21826;BME280;11075;47.944;11.776;2023-04-25T12:54:28;94185.34;;;7.00;40.79
21826;BME280;11075;47.944;11.776;2023-04-25T12:56:56;94198.81;;;7.33;37.51
21826;BME280;11075;47.944;11.776;2023-04-25T12:59:23;94181.97;;;5.77;41.11
21826;BME280;11075;47.944;11.776;2023-04-25T13:01:50;94200.75;;;7.03;38.49
21826;BME280;11075;47.944;11.776;2023-04-25T13:04:17;94203.34;;;6.32;41.74
21826;BME280;11075;47.944;11.776;2023-04-25T13:06:44;94215.28;;;7.23;37.87
21826;BME280;11075;47.944;11.776;2023-04-25T13:09:11;94202.13;;;4.96;41.62
21826;BME280;11075;47.944;11.776;2023-04-25T13:11:39;94193.09;;;4.58;42.90
21826;BME280;11075;47.944;11.776;2023-04-25T13:14:08;94205.59;;;5.06;42.21
21826;BME280;11075;47.944;11.776;2023-04-25T13:16:35;94224.88;;;4.28;41.62
21826;BME280;11075;47.944;11.776;2023-04-25T13:22:19;94222.16;;;4.20;41.89
21826;BME280;11075;47.944;11.776;2023-04-25T13:24:47;94235.97;;;4.22;41.99
21826;BME280;11075;47.944;11.776;2023-04-25T13:27:13;94228.56;;;2.98;44.12
21826;BME280;11075;47.944;11.776;2023-04-25T13:29:40;94228.91;;;2.28;45.31
21826;BME280;11075;47.944;11.776;2023-04-25T13:32:08;94230.78;;;2.69;46.60
21826;BME280;11075;47.944;11.776;2023-04-25T13:34:36;94241.44;;;3.63;44.20
21826;BME280;11075;47.944;11.776;2023-04-25T13:37:03;94229.34;;;4.11;43.83
21826;BME280;11075;47.944;11.776;2023-04-25T13:39:30;94232.75;;;4.02;45.68